sensor_id;sensor_type;location;lat;lon;timestamp;P1;durP1;ratioP1;P2;durP2;ratioP2
82744;SDS011;72484;50.004;14.356;2023-08-31T00:00:18;6.80;;;2.50;;
82744;SDS011;72484;50.004;14.356;2023-08-31T00:03:27;8.10;;;2.50;;
82744;SDS011;72484;50.004;14.356;2023-08-31T00:06:15;6.70;;;2.70;;
82744;SDS011;72484;50.004;14.356;2023-08-31T00:09:24;7.30;;;3.10;;
82744;SDS011;72484;50.004;14.356;2023-08-31T00:12:24;6.90;;;3.10;;
82744;SDS011;72484;50.004;14.356;2023-08-31T00:15:13;8.10;;;2.80;;
82744;SDS011;72484;50.004;14.356;2023-08-31T00:18:02;8.00;;;3.20;;
82744;SDS011;72484;50.004;14.356;2023-08-31T00:21:10;6.70;;;2.80;;
82744;SDS011;72484;50.004;14.356;2023-08-31T00:24:19;6.90;;;2.80;;
82744;SDS011;72484;50.004;14.356;2023-08-31T00:27:15;7.80;;;3.20;;
82744;SDS011;72484;50.004;14.356;2023-08-31T00:30:05;7.30;;;2.80;;
82744;SDS011;72484;50.004;14.356;2023-08-31T00:32:55;6.70;;;3.00;;
82744;SDS011;72484;50.004;14.356;2023-08-31T00:35:44;7.90;;;3.30;;
82744;SDS011;72484;50.004;14.356;2023-08-31T00:38:37;7.60;;;2.80;;
82744;SDS011;72484;50.004;14.356;2023-08-31T00:41:28;6.90;;;2.90;;
82744;SDS011;72484;50.004;14.356;2023-08-31T00:44:16;7.30;;;3.20;;
82744;SDS011;72484;50.004;14.356;2023-08-31T00:47:05;6.90;;;3.00;;
82744;SDS011;72484;50.004;14.356;2023-08-31T00:49:53;7.30;;;3.10;;
82744;SDS011;72484;50.004;14.356;2023-08-31T00:52:43;7.70;;;3.10;;
82744;SDS011;72484;50.004;14.356;2023-08-31T00:55:33;7.50;;;2.80;;
82744;SDS011;72484;50.004;14.356;2023-08-31T00:58:34;8.40;;;2.70;;
82744;SDS011;72484;50.004;14.356;2023-08-31T01:01:24;9.10;;;3.40;;
82744;SDS011;72484;50.004;14.356;2023-08-31T01:04:26;7.50;;;3.30;;
82744;SDS011;72484;50.004;14.356;2023-08-31T01:07:28;6.90;;;2.90;;
82744;SDS011;72484;50.004;14.356;2023-08-31T01:10:29;7.40;;;3.10;;
82744;SDS011;72484;50.004;14.356;2023-08-31T01:13:24;7.40;;;2.60;;
82744;SDS011;72484;50.004;14.356;2023-08-31T01:16:16;7.20;;;2.70;;
82744;SDS011;72484;50.004;14.356;2023-08-31T01:19:08;7.60;;;3.30;;
82744;SDS011;72484;50.004;14.356;2023-08-31T01:22:11;7.10;;;2.70;;
82744;SDS011;72484;50.004;14.356;2023-08-31T01:25:02;7.00;;;2.80;;
82744;SDS011;72484;50.004;14.356;2023-08-31T01:27:54;7.10;;;2.70;;
82744;SDS011;72484;50.004;14.356;2023-08-31T01:30:43;7.70;;;2.70;;
82744;SDS011;72484;50.004;14.356;2023-08-31T01:33:33;7.30;;;2.90;;
82744;SDS011;72484;50.004;14.356;2023-08-31T01:36:23;9.90;;;3.10;;
82744;SDS011;72484;50.004;14.356;2023-08-31T01:39:15;7.90;;;2.90;;
82744;SDS011;72484;50.004;14.356;2023-08-31T01:42:08;8.40;;;3.00;;
82744;SDS011;72484;50.004;14.356;2023-08-31T01:45:00;6.90;;;2.90;;
82744;SDS011;72484;50.004;14.356;2023-08-31T01:47:50;7.70;;;3.00;;
82744;SDS011;72484;50.004;14.356;2023-08-31T01:50:39;7.60;;;2.70;;
82744;SDS011;72484;50.004;14.356;2023-08-31T01:53:27;6.50;;;2.90;;
82744;SDS011;72484;50.004;14.356;2023-08-31T01:56:16;7.50;;;3.10;;
82744;SDS011;72484;50.004;14.356;2023-08-31T01:59:04;6.40;;;2.70;;
82744;SDS011;72484;50.004;14.356;2023-08-31T02:01:53;6.90;;;3.10;;
82744;SDS011;72484;50.004;14.356;2023-08-31T02:04:41;7.30;;;3.20;;
82744;SDS011;72484;50.004;14.356;2023-08-31T02:07:30;6.80;;;2.50;;
82744;SDS011;72484;50.004;14.356;2023-08-31T02:10:18;7.60;;;2.60;;
82744;SDS011;72484;50.004;14.356;2023-08-31T02:13:07;8.50;;;3.20;;
82744;SDS011;72484;50.004;14.356;2023-08-31T02:15:55;8.80;;;2.80;;
82744;SDS011;72484;50.004;14.356;2023-08-31T02:18:44;7.10;;;3.00;;
82744;SDS011;72484;50.004;14.356;2023-08-31T02:21:32;6.90;;;3.10;;
82744;SDS011;72484;50.004;14.356;2023-08-31T02:24:21;8.20;;;3.00;;
82744;SDS011;72484;50.004;14.356;2023-08-31T02:27:09;8.40;;;2.80;;
82744;SDS011;72484;50.004;14.356;2023-08-31T02:29:58;8.90;;;3.10;;
82744;SDS011;72484;50.004;14.356;2023-08-31T02:32:48;7.50;;;2.90;;
82744;SDS011;72484;50.004;14.356;2023-08-31T02:35:36;6.60;;;2.50;;
82744;SDS011;72484;50.004;14.356;2023-08-31T02:38:27;7.50;;;3.00;;
82744;SDS011;72484;50.004;14.356;2023-08-31T02:41:16;7.80;;;2.90;;
82744;SDS011;72484;50.004;14.356;2023-08-31T02:44:04;8.50;;;3.20;;
82744;SDS011;72484;50.004;14.356;2023-08-31T02:46:53;7.70;;;2.80;;
82744;SDS011;72484;50.004;14.356;2023-08-31T02:49:41;7.00;;;2.70;;
82744;SDS011;72484;50.004;14.356;2023-08-31T02:52:29;8.20;;;2.90;;
82744;SDS011;72484;50.004;14.356;2023-08-31T02:55:18;8.00;;;3.30;;
82744;SDS011;72484;50.004;14.356;2023-08-31T02:58:06;7.20;;;2.50;;
82744;SDS011;72484;50.004;14.356;2023-08-31T03:00:55;7.00;;;2.80;;
82744;SDS011;72484;50.004;14.356;2023-08-31T03:03:52;7.60;;;3.00;;
82744;SDS011;72484;50.004;14.356;2023-08-31T03:06:40;8.40;;;2.80;;
82744;SDS011;72484;50.004;14.356;2023-08-31T03:09:29;7.70;;;3.10;;
82744;SDS011;72484;50.004;14.356;2023-08-31T03:12:18;6.30;;;2.80;;
82744;SDS011;72484;50.004;14.356;2023-08-31T03:15:08;7.90;;;2.90;;
82744;SDS011;72484;50.004;14.356;2023-08-31T03:17:56;7.20;;;2.70;;
82744;SDS011;72484;50.004;14.356;2023-08-31T03:20:44;8.40;;;2.90;;
82744;SDS011;72484;50.004;14.356;2023-08-31T03:23:33;6.60;;;2.50;;
82744;SDS011;72484;50.004;14.356;2023-08-31T03:26:22;7.00;;;2.60;;
82744;SDS011;72484;50.004;14.356;2023-08-31T03:29:10;6.80;;;2.80;;
82744;SDS011;72484;50.004;14.356;2023-08-31T03:31:59;8.40;;;2.80;;
82744;SDS011;72484;50.004;14.356;2023-08-31T03:34:47;7.50;;;2.60;;
82744;SDS011;72484;50.004;14.356;2023-08-31T03:37:36;6.90;;;2.60;;
82744;SDS011;72484;50.004;14.356;2023-08-31T03:40:25;6.80;;;2.50;;
82744;SDS011;72484;50.004;14.356;2023-08-31T03:43:13;7.30;;;2.60;;
82744;SDS011;72484;50.004;14.356;2023-08-31T03:46:02;7.60;;;2.70;;
82744;SDS011;72484;50.004;14.356;2023-08-31T03:48:50;6.30;;;2.50;;
82744;SDS011;72484;50.004;14.356;2023-08-31T03:51:38;7.50;;;2.40;;
82744;SDS011;72484;50.004;14.356;2023-08-31T03:54:27;6.80;;;2.50;;
82744;SDS011;72484;50.004;14.356;2023-08-31T03:57:16;7.50;;;2.60;;
82744;SDS011;72484;50.004;14.356;2023-08-31T04:00:05;7.30;;;2.30;;
82744;SDS011;72484;50.004;14.356;2023-08-31T04:02:58;8.40;;;2.60;;
82744;SDS011;72484;50.004;14.356;2023-08-31T04:05:46;7.30;;;2.80;;
82744;SDS011;72484;50.004;14.356;2023-08-31T04:08:35;7.90;;;2.60;;
82744;SDS011;72484;50.004;14.356;2023-08-31T04:11:24;6.70;;;2.40;;
82744;SDS011;72484;50.004;14.356;2023-08-31T04:14:13;7.30;;;2.50;;
82744;SDS011;72484;50.004;14.356;2023-08-31T04:17:02;6.60;;;2.40;;
82744;SDS011;72484;50.004;14.356;2023-08-31T04:19:51;6.30;;;2.10;;
82744;SDS011;72484;50.004;14.356;2023-08-31T04:22:40;6.60;;;2.60;;
82744;SDS011;72484;50.004;14.356;2023-08-31T04:25:29;7.00;;;2.20;;
82744;SDS011;72484;50.004;14.356;2023-08-31T04:28:19;8.80;;;2.50;;
82744;SDS011;72484;50.004;14.356;2023-08-31T04:31:07;6.90;;;2.10;;
82744;SDS011;72484;50.004;14.356;2023-08-31T04:33:56;6.50;;;2.20;;
82744;SDS011;72484;50.004;14.356;2023-08-31T04:36:45;6.30;;;2.00;;
82744;SDS011;72484;50.004;14.356;2023-08-31T04:39:34;5.60;;;2.00;;
82744;SDS011;72484;50.004;14.356;2023-08-31T04:42:22;6.60;;;1.90;;
82744;SDS011;72484;50.004;14.356;2023-08-31T04:45:11;6.50;;;2.00;;
82744;SDS011;72484;50.004;14.356;2023-08-31T04:47:59;6.00;;;2.30;;
82744;SDS011;72484;50.004;14.356;2023-08-31T04:50:49;5.50;;;1.60;;
82744;SDS011;72484;50.004;14.356;2023-08-31T04:53:39;5.90;;;1.70;;
82744;SDS011;72484;50.004;14.356;2023-08-31T04:56:29;6.00;;;1.90;;
82744;SDS011;72484;50.004;14.356;2023-08-31T04:59:18;5.80;;;1.70;;
82744;SDS011;72484;50.004;14.356;2023-08-31T05:02:07;6.80;;;1.70;;
82744;SDS011;72484;50.004;14.356;2023-08-31T05:04:55;6.60;;;1.80;;
82744;SDS011;72484;50.004;14.356;2023-08-31T05:07:44;5.70;;;1.60;;
82744;SDS011;72484;50.004;14.356;2023-08-31T05:10:32;6.10;;;1.90;;
82744;SDS011;72484;50.004;14.356;2023-08-31T05:13:21;6.90;;;1.80;;
82744;SDS011;72484;50.004;14.356;2023-08-31T05:16:10;6.70;;;1.60;;
82744;SDS011;72484;50.004;14.356;2023-08-31T05:18:59;6.10;;;2.10;;
82744;SDS011;72484;50.004;14.356;2023-08-31T05:21:48;12.00;;;5.80;;
82744;SDS011;72484;50.004;14.356;2023-08-31T05:24:36;6.30;;;1.70;;
82744;SDS011;72484;50.004;14.356;2023-08-31T05:27:24;7.60;;;2.20;;
82744;SDS011;72484;50.004;14.356;2023-08-31T05:30:13;6.10;;;1.80;;
82744;SDS011;72484;50.004;14.356;2023-08-31T05:33:02;5.90;;;1.70;;
82744;SDS011;72484;50.004;14.356;2023-08-31T05:35:51;6.40;;;1.80;;
82744;SDS011;72484;50.004;14.356;2023-08-31T05:38:39;5.70;;;1.80;;
82744;SDS011;72484;50.004;14.356;2023-08-31T05:41:28;5.90;;;1.60;;
82744;SDS011;72484;50.004;14.356;2023-08-31T05:44:16;6.10;;;1.80;;
82744;SDS011;72484;50.004;14.356;2023-08-31T05:47:05;5.70;;;1.60;;
82744;SDS011;72484;50.004;14.356;2023-08-31T05:49:54;6.90;;;2.30;;
82744;SDS011;72484;50.004;14.356;2023-08-31T05:52:42;5.80;;;2.10;;
82744;SDS011;72484;50.004;14.356;2023-08-31T05:55:30;6.80;;;1.80;;
82744;SDS011;72484;50.004;14.356;2023-08-31T05:58:19;6.30;;;1.70;;
82744;SDS011;72484;50.004;14.356;2023-08-31T06:01:08;6.80;;;1.80;;
82744;SDS011;72484;50.004;14.356;2023-08-31T06:03:56;5.90;;;1.50;;
82744;SDS011;72484;50.004;14.356;2023-08-31T06:06:44;6.90;;;2.00;;
82744;SDS011;72484;50.004;14.356;2023-08-31T06:09:33;5.80;;;1.60;;
82744;SDS011;72484;50.004;14.356;2023-08-31T06:12:23;7.00;;;1.60;;
82744;SDS011;72484;50.004;14.356;2023-08-31T06:15:12;9.40;;;1.70;;
82744;SDS011;72484;50.004;14.356;2023-08-31T06:18:00;6.40;;;1.50;;
82744;SDS011;72484;50.004;14.356;2023-08-31T06:20:50;6.90;;;1.40;;
82744;SDS011;72484;50.004;14.356;2023-08-31T06:23:38;6.30;;;1.40;;
82744;SDS011;72484;50.004;14.356;2023-08-31T06:26:27;6.40;;;1.50;;
82744;SDS011;72484;50.004;14.356;2023-08-31T06:29:15;6.20;;;1.60;;
82744;SDS011;72484;50.004;14.356;2023-08-31T06:32:04;6.20;;;1.40;;
82744;SDS011;72484;50.004;14.356;2023-08-31T06:34:53;6.90;;;1.50;;
82744;SDS011;72484;50.004;14.356;2023-08-31T06:37:42;11.50;;;3.50;;
82744;SDS011;72484;50.004;14.356;2023-08-31T06:40:31;8.90;;;2.80;;
82744;SDS011;72484;50.004;14.356;2023-08-31T06:43:19;6.60;;;2.00;;
82744;SDS011;72484;50.004;14.356;2023-08-31T06:46:08;8.90;;;2.70;;
82744;SDS011;72484;50.004;14.356;2023-08-31T06:48:56;7.20;;;3.20;;
82744;SDS011;72484;50.004;14.356;2023-08-31T06:51:44;5.90;;;2.40;;
82744;SDS011;72484;50.004;14.356;2023-08-31T06:54:33;6.60;;;1.70;;
82744;SDS011;72484;50.004;14.356;2023-08-31T06:57:22;6.00;;;1.60;;
82744;SDS011;72484;50.004;14.356;2023-08-31T07:00:11;7.50;;;2.10;;
82744;SDS011;72484;50.004;14.356;2023-08-31T07:03:00;6.10;;;1.30;;
82744;SDS011;72484;50.004;14.356;2023-08-31T07:05:50;6.90;;;1.80;;
82744;SDS011;72484;50.004;14.356;2023-08-31T07:08:40;7.00;;;1.20;;
82744;SDS011;72484;50.004;14.356;2023-08-31T07:11:30;5.50;;;1.20;;
82744;SDS011;72484;50.004;14.356;2023-08-31T07:14:19;24.80;;;5.40;;
82744;SDS011;72484;50.004;14.356;2023-08-31T07:17:07;8.60;;;3.10;;
82744;SDS011;72484;50.004;14.356;2023-08-31T07:19:56;6.10;;;1.60;;
82744;SDS011;72484;50.004;14.356;2023-08-31T07:22:44;5.50;;;1.30;;
82744;SDS011;72484;50.004;14.356;2023-08-31T07:25:32;6.00;;;1.40;;
82744;SDS011;72484;50.004;14.356;2023-08-31T07:28:21;7.40;;;1.20;;
82744;SDS011;72484;50.004;14.356;2023-08-31T07:31:09;5.80;;;1.10;;
82744;SDS011;72484;50.004;14.356;2023-08-31T07:33:58;5.60;;;1.20;;
82744;SDS011;72484;50.004;14.356;2023-08-31T07:36:48;10.90;;;2.50;;
82744;SDS011;72484;50.004;14.356;2023-08-31T07:39:37;7.90;;;2.50;;
82744;SDS011;72484;50.004;14.356;2023-08-31T07:42:25;5.80;;;1.40;;
82744;SDS011;72484;50.004;14.356;2023-08-31T07:45:15;5.30;;;1.20;;
82744;SDS011;72484;50.004;14.356;2023-08-31T07:48:04;5.10;;;1.10;;
82744;SDS011;72484;50.004;14.356;2023-08-31T07:50:53;9.60;;;1.70;;
82744;SDS011;72484;50.004;14.356;2023-08-31T07:53:42;7.90;;;1.30;;
82744;SDS011;72484;50.004;14.356;2023-08-31T07:56:30;14.70;;;1.80;;
82744;SDS011;72484;50.004;14.356;2023-08-31T07:59:19;11.50;;;1.60;;
82744;SDS011;72484;50.004;14.356;2023-08-31T08:02:07;8.80;;;1.20;;
82744;SDS011;72484;50.004;14.356;2023-08-31T08:04:56;7.00;;;1.30;;
82744;SDS011;72484;50.004;14.356;2023-08-31T08:07:44;10.60;;;1.60;;
82744;SDS011;72484;50.004;14.356;2023-08-31T08:10:32;13.10;;;1.20;;
82744;SDS011;72484;50.004;14.356;2023-08-31T08:13:21;16.00;;;1.80;;
82744;SDS011;72484;50.004;14.356;2023-08-31T08:16:09;12.20;;;1.70;;
82744;SDS011;72484;50.004;14.356;2023-08-31T08:18:57;11.00;;;1.60;;
82744;SDS011;72484;50.004;14.356;2023-08-31T08:21:46;9.70;;;1.20;;
82744;SDS011;72484;50.004;14.356;2023-08-31T08:24:34;7.70;;;1.20;;
82744;SDS011;72484;50.004;14.356;2023-08-31T08:27:23;7.50;;;1.30;;
82744;SDS011;72484;50.004;14.356;2023-08-31T08:30:12;9.30;;;1.60;;
82744;SDS011;72484;50.004;14.356;2023-08-31T08:33:00;9.50;;;1.40;;
82744;SDS011;72484;50.004;14.356;2023-08-31T08:35:49;8.20;;;1.50;;
82744;SDS011;72484;50.004;14.356;2023-08-31T08:38:37;11.30;;;1.50;;
82744;SDS011;72484;50.004;14.356;2023-08-31T08:41:26;11.50;;;1.40;;
82744;SDS011;72484;50.004;14.356;2023-08-31T08:44:19;10.90;;;1.30;;
82744;SDS011;72484;50.004;14.356;2023-08-31T08:47:12;8.20;;;1.70;;
82744;SDS011;72484;50.004;14.356;2023-08-31T08:50:02;8.00;;;1.20;;
82744;SDS011;72484;50.004;14.356;2023-08-31T08:52:52;9.10;;;1.50;;
82744;SDS011;72484;50.004;14.356;2023-08-31T08:55:41;7.90;;;1.30;;
82744;SDS011;72484;50.004;14.356;2023-08-31T08:58:29;6.00;;;1.10;;
82744;SDS011;72484;50.004;14.356;2023-08-31T09:01:18;8.90;;;1.50;;
82744;SDS011;72484;50.004;14.356;2023-08-31T09:04:08;7.30;;;1.50;;
82744;SDS011;72484;50.004;14.356;2023-08-31T09:06:57;7.60;;;1.40;;
82744;SDS011;72484;50.004;14.356;2023-08-31T09:09:49;7.80;;;1.10;;
82744;SDS011;72484;50.004;14.356;2023-08-31T09:12:38;6.90;;;1.10;;
82744;SDS011;72484;50.004;14.356;2023-08-31T09:15:35;21.40;;;2.00;;
82744;SDS011;72484;50.004;14.356;2023-08-31T09:18:26;10.70;;;1.30;;
82744;SDS011;72484;50.004;14.356;2023-08-31T09:21:17;6.20;;;1.20;;
82744;SDS011;72484;50.004;14.356;2023-08-31T09:24:07;10.00;;;1.50;;
82744;SDS011;72484;50.004;14.356;2023-08-31T09:26:56;8.10;;;1.30;;
82744;SDS011;72484;50.004;14.356;2023-08-31T09:29:46;8.90;;;1.60;;
82744;SDS011;72484;50.004;14.356;2023-08-31T09:32:34;7.20;;;1.30;;
82744;SDS011;72484;50.004;14.356;2023-08-31T09:35:24;10.20;;;1.70;;
82744;SDS011;72484;50.004;14.356;2023-08-31T09:38:12;6.80;;;1.20;;
82744;SDS011;72484;50.004;14.356;2023-08-31T09:41:05;7.90;;;1.30;;
82744;SDS011;72484;50.004;14.356;2023-08-31T09:43:54;7.10;;;1.30;;
82744;SDS011;72484;50.004;14.356;2023-08-31T09:46:42;8.30;;;1.60;;
82744;SDS011;72484;50.004;14.356;2023-08-31T09:49:31;6.50;;;1.50;;
82744;SDS011;72484;50.004;14.356;2023-08-31T09:52:21;6.60;;;1.20;;
82744;SDS011;72484;50.004;14.356;2023-08-31T09:55:11;7.00;;;1.50;;
82744;SDS011;72484;50.004;14.356;2023-08-31T09:58:01;5.90;;;1.20;;
82744;SDS011;72484;50.004;14.356;2023-08-31T10:00:52;7.70;;;1.40;;
82744;SDS011;72484;50.004;14.356;2023-08-31T10:03:41;6.80;;;1.60;;
82744;SDS011;72484;50.004;14.356;2023-08-31T10:06:30;6.60;;;1.40;;
82744;SDS011;72484;50.004;14.356;2023-08-31T10:09:20;5.90;;;1.30;;
82744;SDS011;72484;50.004;14.356;2023-08-31T10:12:08;5.90;;;1.30;;
82744;SDS011;72484;50.004;14.356;2023-08-31T10:14:57;6.20;;;1.10;;
82744;SDS011;72484;50.004;14.356;2023-08-31T10:17:47;5.80;;;1.10;;
82744;SDS011;72484;50.004;14.356;2023-08-31T10:20:36;6.40;;;1.20;;
82744;SDS011;72484;50.004;14.356;2023-08-31T10:23:28;7.20;;;1.40;;
82744;SDS011;72484;50.004;14.356;2023-08-31T10:26:26;6.90;;;1.50;;
82744;SDS011;72484;50.004;14.356;2023-08-31T10:29:26;6.20;;;1.10;;
82744;SDS011;72484;50.004;14.356;2023-08-31T10:32:18;5.70;;;1.00;;
82744;SDS011;72484;50.004;14.356;2023-08-31T10:35:08;6.00;;;1.10;;
82744;SDS011;72484;50.004;14.356;2023-08-31T10:41:19;6.30;;;1.20;;
82744;SDS011;72484;50.004;14.356;2023-08-31T10:44:19;8.90;;;1.40;;
82744;SDS011;72484;50.004;14.356;2023-08-31T10:47:07;7.70;;;1.40;;
82744;SDS011;72484;50.004;14.356;2023-08-31T10:49:54;9.60;;;1.70;;
82744;SDS011;72484;50.004;14.356;2023-08-31T10:52:44;8.10;;;1.20;;
82744;SDS011;72484;50.004;14.356;2023-08-31T10:55:32;5.80;;;1.10;;
82744;SDS011;72484;50.004;14.356;2023-08-31T10:58:18;7.20;;;1.30;;
82744;SDS011;72484;50.004;14.356;2023-08-31T11:01:04;7.00;;;1.30;;
82744;SDS011;72484;50.004;14.356;2023-08-31T11:03:58;7.70;;;1.00;;
82744;SDS011;72484;50.004;14.356;2023-08-31T11:06:45;7.70;;;1.20;;
82744;SDS011;72484;50.004;14.356;2023-08-31T11:09:32;7.40;;;1.70;;
82744;SDS011;72484;50.004;14.356;2023-08-31T11:12:21;7.10;;;1.40;;
82744;SDS011;72484;50.004;14.356;2023-08-31T11:15:10;6.30;;;1.10;;
82744;SDS011;72484;50.004;14.356;2023-08-31T11:17:57;5.80;;;1.20;;
82744;SDS011;72484;50.004;14.356;2023-08-31T11:20:44;7.40;;;1.00;;
82744;SDS011;72484;50.004;14.356;2023-08-31T11:23:34;6.80;;;1.20;;
82744;SDS011;72484;50.004;14.356;2023-08-31T11:26:21;8.30;;;1.30;;
82744;SDS011;72484;50.004;14.356;2023-08-31T11:29:09;12.00;;;1.70;;
82744;SDS011;72484;50.004;14.356;2023-08-31T11:31:56;8.40;;;2.10;;
82744;SDS011;72484;50.004;14.356;2023-08-31T11:34:46;8.50;;;1.10;;
82744;SDS011;72484;50.004;14.356;2023-08-31T11:37:37;6.40;;;1.30;;
82744;SDS011;72484;50.004;14.356;2023-08-31T11:40:24;7.90;;;1.30;;
82744;SDS011;72484;50.004;14.356;2023-08-31T11:43:14;8.40;;;1.50;;
82744;SDS011;72484;50.004;14.356;2023-08-31T11:46:01;6.70;;;1.20;;
82744;SDS011;72484;50.004;14.356;2023-08-31T11:48:49;6.50;;;1.60;;
82744;SDS011;72484;50.004;14.356;2023-08-31T11:51:35;6.60;;;1.30;;
82744;SDS011;72484;50.004;14.356;2023-08-31T11:54:25;12.00;;;2.00;;
82744;SDS011;72484;50.004;14.356;2023-08-31T11:57:11;7.40;;;1.40;;
82744;SDS011;72484;50.004;14.356;2023-08-31T11:59:59;6.80;;;1.50;;
82744;SDS011;72484;50.004;14.356;2023-08-31T12:02:56;9.00;;;1.60;;
82744;SDS011;72484;50.004;14.356;2023-08-31T12:05:46;7.60;;;1.30;;
82744;SDS011;72484;50.004;14.356;2023-08-31T12:08:34;9.30;;;1.20;;
82744;SDS011;72484;50.004;14.356;2023-08-31T12:11:23;7.00;;;1.40;;
82744;SDS011;72484;50.004;14.356;2023-08-31T12:14:19;8.50;;;1.50;;
82744;SDS011;72484;50.004;14.356;2023-08-31T12:17:07;11.00;;;2.00;;
82744;SDS011;72484;50.004;14.356;2023-08-31T12:20:01;8.80;;;1.20;;
82744;SDS011;72484;50.004;14.356;2023-08-31T12:22:50;8.60;;;1.40;;
82744;SDS011;72484;50.004;14.356;2023-08-31T12:25:37;7.10;;;1.20;;
82744;SDS011;72484;50.004;14.356;2023-08-31T12:28:23;7.30;;;1.40;;
82744;SDS011;72484;50.004;14.356;2023-08-31T12:31:11;5.80;;;1.10;;
82744;SDS011;72484;50.004;14.356;2023-08-31T12:33:57;5.70;;;1.10;;
82744;SDS011;72484;50.004;14.356;2023-08-31T12:36:45;6.00;;;1.30;;
82744;SDS011;72484;50.004;14.356;2023-08-31T12:39:31;9.70;;;1.40;;
82744;SDS011;72484;50.004;14.356;2023-08-31T12:42:18;7.60;;;1.40;;
82744;SDS011;72484;50.004;14.356;2023-08-31T12:45:05;6.30;;;1.10;;
82744;SDS011;72484;50.004;14.356;2023-08-31T12:47:53;7.90;;;1.40;;
82744;SDS011;72484;50.004;14.356;2023-08-31T12:50:39;14.60;;;1.70;;
82744;SDS011;72484;50.004;14.356;2023-08-31T12:53:26;7.20;;;1.20;;
82744;SDS011;72484;50.004;14.356;2023-08-31T12:56:12;6.40;;;1.10;;
82744;SDS011;72484;50.004;14.356;2023-08-31T12:58:59;7.00;;;1.40;;
82744;SDS011;72484;50.004;14.356;2023-08-31T13:01:46;21.10;;;2.00;;
82744;SDS011;72484;50.004;14.356;2023-08-31T13:04:33;6.90;;;1.30;;
82744;SDS011;72484;50.004;14.356;2023-08-31T13:07:20;28.60;;;2.40;;
82744;SDS011;72484;50.004;14.356;2023-08-31T13:10:07;34.80;;;2.50;;
82744;SDS011;72484;50.004;14.356;2023-08-31T13:12:54;12.60;;;1.40;;
82744;SDS011;72484;50.004;14.356;2023-08-31T13:15:41;11.90;;;1.30;;
82744;SDS011;72484;50.004;14.356;2023-08-31T13:18:27;8.00;;;1.30;;
82744;SDS011;72484;50.004;14.356;2023-08-31T13:21:14;8.30;;;1.30;;
82744;SDS011;72484;50.004;14.356;2023-08-31T13:24:00;7.70;;;1.30;;
82744;SDS011;72484;50.004;14.356;2023-08-31T13:26:47;13.80;;;1.90;;
82744;SDS011;72484;50.004;14.356;2023-08-31T13:29:33;11.10;;;1.30;;
82744;SDS011;72484;50.004;14.356;2023-08-31T13:32:20;6.00;;;1.10;;
82744;SDS011;72484;50.004;14.356;2023-08-31T13:35:07;7.70;;;1.10;;
82744;SDS011;72484;50.004;14.356;2023-08-31T13:37:55;7.70;;;1.10;;
82744;SDS011;72484;50.004;14.356;2023-08-31T13:40:41;9.80;;;1.40;;
82744;SDS011;72484;50.004;14.356;2023-08-31T13:43:28;6.80;;;1.50;;
82744;SDS011;72484;50.004;14.356;2023-08-31T13:46:14;5.50;;;1.00;;
82744;SDS011;72484;50.004;14.356;2023-08-31T13:49:01;6.50;;;1.20;;
82744;SDS011;72484;50.004;14.356;2023-08-31T13:51:49;8.00;;;1.10;;
82744;SDS011;72484;50.004;14.356;2023-08-31T13:54:35;9.90;;;1.40;;
82744;SDS011;72484;50.004;14.356;2023-08-31T13:57:22;5.70;;;1.20;;
82744;SDS011;72484;50.004;14.356;2023-08-31T14:00:09;6.40;;;1.30;;
82744;SDS011;72484;50.004;14.356;2023-08-31T14:02:57;5.50;;;1.10;;
82744;SDS011;72484;50.004;14.356;2023-08-31T14:05:48;5.70;;;1.20;;
82744;SDS011;72484;50.004;14.356;2023-08-31T14:08:34;5.60;;;1.10;;
82744;SDS011;72484;50.004;14.356;2023-08-31T14:11:21;7.20;;;1.30;;
82744;SDS011;72484;50.004;14.356;2023-08-31T14:14:07;5.70;;;1.20;;
82744;SDS011;72484;50.004;14.356;2023-08-31T14:16:55;7.90;;;1.40;;
82744;SDS011;72484;50.004;14.356;2023-08-31T14:19:42;6.10;;;1.20;;
82744;SDS011;72484;50.004;14.356;2023-08-31T14:22:28;6.40;;;1.40;;
82744;SDS011;72484;50.004;14.356;2023-08-31T14:25:15;9.40;;;1.50;;
82744;SDS011;72484;50.004;14.356;2023-08-31T14:28:01;8.70;;;1.60;;
82744;SDS011;72484;50.004;14.356;2023-08-31T14:30:48;9.40;;;1.90;;
82744;SDS011;72484;50.004;14.356;2023-08-31T14:33:35;11.10;;;1.60;;
82744;SDS011;72484;50.004;14.356;2023-08-31T14:36:22;7.60;;;1.40;;
82744;SDS011;72484;50.004;14.356;2023-08-31T14:39:11;6.70;;;1.30;;
82744;SDS011;72484;50.004;14.356;2023-08-31T14:41:57;6.90;;;1.40;;
82744;SDS011;72484;50.004;14.356;2023-08-31T14:44:44;7.40;;;2.00;;
82744;SDS011;72484;50.004;14.356;2023-08-31T14:47:30;6.00;;;1.40;;
82744;SDS011;72484;50.004;14.356;2023-08-31T14:50:17;7.00;;;1.40;;
82744;SDS011;72484;50.004;14.356;2023-08-31T14:53:05;6.80;;;1.60;;
82744;SDS011;72484;50.004;14.356;2023-08-31T14:55:52;6.40;;;1.30;;
82744;SDS011;72484;50.004;14.356;2023-08-31T14:58:38;7.00;;;1.50;;
82744;SDS011;72484;50.004;14.356;2023-08-31T15:01:25;6.50;;;1.70;;
82744;SDS011;72484;50.004;14.356;2023-08-31T15:04:11;6.80;;;1.50;;
82744;SDS011;72484;50.004;14.356;2023-08-31T15:06:57;6.10;;;1.50;;
82744;SDS011;72484;50.004;14.356;2023-08-31T15:09:44;6.60;;;1.20;;
82744;SDS011;72484;50.004;14.356;2023-08-31T15:12:31;6.80;;;1.40;;
82744;SDS011;72484;50.004;14.356;2023-08-31T15:15:18;6.30;;;1.30;;
82744;SDS011;72484;50.004;14.356;2023-08-31T15:18:04;6.50;;;1.20;;
82744;SDS011;72484;50.004;14.356;2023-08-31T15:20:51;5.50;;;1.10;;
82744;SDS011;72484;50.004;14.356;2023-08-31T15:23:38;7.10;;;1.20;;
82744;SDS011;72484;50.004;14.356;2023-08-31T15:26:24;6.90;;;1.30;;
82744;SDS011;72484;50.004;14.356;2023-08-31T15:29:11;7.40;;;1.10;;
82744;SDS011;72484;50.004;14.356;2023-08-31T15:31:57;6.10;;;1.10;;
82744;SDS011;72484;50.004;14.356;2023-08-31T15:34:44;6.50;;;1.50;;
82744;SDS011;72484;50.004;14.356;2023-08-31T15:37:31;6.50;;;1.20;;
82744;SDS011;72484;50.004;14.356;2023-08-31T15:40:18;5.30;;;1.30;;
82744;SDS011;72484;50.004;14.356;2023-08-31T15:43:07;6.10;;;1.30;;
82744;SDS011;72484;50.004;14.356;2023-08-31T15:45:53;6.30;;;1.30;;
82744;SDS011;72484;50.004;14.356;2023-08-31T15:48:40;6.90;;;1.50;;
82744;SDS011;72484;50.004;14.356;2023-08-31T15:51:26;6.60;;;1.30;;
82744;SDS011;72484;50.004;14.356;2023-08-31T15:54:13;5.90;;;1.10;;
82744;SDS011;72484;50.004;14.356;2023-08-31T15:57:00;5.70;;;1.30;;
82744;SDS011;72484;50.004;14.356;2023-08-31T15:59:47;6.10;;;1.40;;
82744;SDS011;72484;50.004;14.356;2023-08-31T16:02:34;8.90;;;1.50;;
82744;SDS011;72484;50.004;14.356;2023-08-31T16:05:21;7.00;;;1.40;;
82744;SDS011;72484;50.004;14.356;2023-08-31T16:08:07;5.90;;;1.30;;
82744;SDS011;72484;50.004;14.356;2023-08-31T16:10:54;6.90;;;1.40;;
82744;SDS011;72484;50.004;14.356;2023-08-31T16:13:41;5.90;;;1.60;;
82744;SDS011;72484;50.004;14.356;2023-08-31T16:16:27;6.40;;;1.40;;
82744;SDS011;72484;50.004;14.356;2023-08-31T16:19:14;5.70;;;1.10;;
82744;SDS011;72484;50.004;14.356;2023-08-31T16:22:01;5.50;;;1.30;;
82744;SDS011;72484;50.004;14.356;2023-08-31T16:24:48;6.90;;;1.30;;
82744;SDS011;72484;50.004;14.356;2023-08-31T16:27:35;5.90;;;1.20;;
82744;SDS011;72484;50.004;14.356;2023-08-31T16:30:21;6.20;;;1.10;;
82744;SDS011;72484;50.004;14.356;2023-08-31T16:33:08;6.20;;;1.40;;
82744;SDS011;72484;50.004;14.356;2023-08-31T16:35:56;6.00;;;1.40;;
82744;SDS011;72484;50.004;14.356;2023-08-31T16:38:42;6.10;;;1.20;;
82744;SDS011;72484;50.004;14.356;2023-08-31T16:41:29;6.40;;;1.10;;
82744;SDS011;72484;50.004;14.356;2023-08-31T16:44:16;6.00;;;1.20;;